createdAt,value
2023-11-30T00:00:10.225Z,20.10
2023-11-30T00:06:14.063Z,17.77
2023-11-30T00:12:17.658Z,18.73
2023-11-30T00:18:22.822Z,17.83
2023-11-30T00:24:26.421Z,19.00
2023-11-30T00:30:29.947Z,18.02
2023-11-30T00:36:34.869Z,16.95
2023-11-30T00:42:38.565Z,17.08
2023-11-30T00:48:42.232Z,17.45
2023-11-30T00:54:47.128Z,19.13
2023-11-30T01:00:50.609Z,24.30
2023-11-30T01:06:54.090Z,29.52
2023-11-30T01:12:58.968Z,24.85
2023-11-30T01:19:02.456Z,25.65
2023-11-30T01:25:06.338Z,25.42
2023-11-30T01:31:11.331Z,24.27
2023-11-30T01:37:14.839Z,18.70
2023-11-30T01:43:20.895Z,22.40
2023-11-30T01:49:25.816Z,24.42
2023-11-30T01:55:29.406Z,22.58
2023-11-30T02:01:33.486Z,19.55
2023-11-30T02:07:38.497Z,22.00
2023-11-30T02:13:42.166Z,20.52
2023-11-30T02:19:45.626Z,21.95
2023-11-30T02:25:50.536Z,21.13
2023-11-30T02:31:54.595Z,20.25
2023-11-30T02:37:58.247Z,17.15
2023-11-30T02:44:03.209Z,17.50
2023-11-30T02:50:07.165Z,13.65
2023-11-30T02:56:10.889Z,15.13
2023-11-30T03:02:16.322Z,15.15
2023-11-30T03:08:20.091Z,25.77
2023-11-30T03:14:23.597Z,17.60
2023-11-30T03:20:28.450Z,12.48
2023-11-30T03:26:32.022Z,13.07
2023-11-30T03:32:35.557Z,15.30
2023-11-30T03:38:40.388Z,11.23
2023-11-30T03:44:43.885Z,13.57
2023-11-30T03:50:47.378Z,13.65
2023-11-30T03:56:52.204Z,14.05
2023-11-30T04:02:55.789Z,13.05
2023-11-30T04:09:00.544Z,15.88
2023-11-30T04:15:06.595Z,16.83
2023-11-30T04:21:10.211Z,13.60
2023-11-30T04:27:13.829Z,14.77
2023-11-30T04:33:18.789Z,15.98
2023-11-30T04:39:22.903Z,22.48
2023-11-30T04:45:26.631Z,15.25
2023-11-30T04:51:31.642Z,15.68
2023-11-30T04:57:35.151Z,13.57
2023-11-30T05:03:39.074Z,12.52
2023-11-30T05:09:44.032Z,15.40
2023-11-30T05:15:47.643Z,15.45
2023-11-30T05:21:51.122Z,14.10
2023-11-30T05:27:56.017Z,12.63
2023-11-30T05:33:59.443Z,57.97
2023-11-30T05:40:04.182Z,27.17
2023-11-30T05:46:09.338Z,11.40
2023-11-30T05:52:12.798Z,27.67
2023-11-30T05:58:16.474Z,13.50
2023-11-30T06:04:21.818Z,12.70
2023-11-30T06:10:25.755Z,15.60
2023-11-30T06:16:29.239Z,11.13
2023-11-30T06:22:34.284Z,12.25
2023-11-30T06:28:37.768Z,10.75
2023-11-30T06:34:41.402Z,12.43
2023-11-30T06:40:46.258Z,11.80
2023-11-30T06:46:50.358Z,10.27
2023-11-30T06:52:53.878Z,10.20
2023-11-30T06:58:59.207Z,11.27
2023-11-30T07:05:05.360Z,13.18
2023-11-30T07:11:10.422Z,28.98
2023-11-30T07:17:15.446Z,12.50
2023-11-30T07:23:18.938Z,11.68
2023-11-30T07:29:26.373Z,13.30
2023-11-30T07:35:31.777Z,12.75
2023-11-30T07:41:35.219Z,9.77
2023-11-30T07:47:38.703Z,13.35
2023-11-30T07:53:43.591Z,12.50
2023-11-30T07:59:48.978Z,13.27
2023-11-30T08:05:52.803Z,12.25
2023-11-30T08:11:57.674Z,13.20
2023-11-30T08:18:02.021Z,15.05
2023-11-30T08:24:05.875Z,12.35
2023-11-30T08:30:11.801Z,10.98
2023-11-30T08:36:15.301Z,14.07
2023-11-30T08:42:18.786Z,11.20
2023-11-30T08:48:24.006Z,14.27
2023-11-30T08:54:27.675Z,13.25
2023-11-30T09:00:31.220Z,11.45
2023-11-30T09:06:36.108Z,15.98
2023-11-30T09:12:39.800Z,20.58
2023-11-30T09:18:43.583Z,22.83
2023-11-30T09:24:48.667Z,16.17
2023-11-30T09:30:53.059Z,14.57
2023-11-30T09:36:56.561Z,15.13
2023-11-30T09:43:01.378Z,16.50
2023-11-30T09:49:08.530Z,13.40
2023-11-30T09:55:15.842Z,19.95
2023-11-30T10:01:20.874Z,23.40
2023-11-30T10:07:25.177Z,21.35
2023-11-30T10:13:28.741Z,16.08
2023-11-30T10:19:33.958Z,16.83
2023-11-30T10:25:39.890Z,15.65
2023-11-30T10:31:44.283Z,13.30
2023-11-30T10:37:51.658Z,14.23
2023-11-30T10:43:57.480Z,13.00
2023-11-30T10:50:01.781Z,11.38
2023-11-30T10:56:07.750Z,13.10
2023-11-30T11:02:12.190Z,16.17
2023-11-30T11:08:16.534Z,15.65
2023-11-30T11:14:34.068Z,15.73
2023-11-30T11:20:38.267Z,19.35
2023-11-30T11:26:49.326Z,18.42
2023-11-30T11:32:57.266Z,26.75
2023-11-30T11:39:00.728Z,31.92
2023-11-30T11:45:05.581Z,62.80
2023-11-30T11:51:11.534Z,61.50
2023-11-30T11:57:15.236Z,57.60
2023-11-30T12:03:18.684Z,42.58
2023-11-30T12:09:23.682Z,32.58
2023-11-30T12:15:27.388Z,41.67
2023-11-30T12:21:30.964Z,52.67
2023-11-30T12:27:35.802Z,47.35
2023-11-30T12:33:39.500Z,32.15
2023-11-30T12:39:43.011Z,34.38
2023-11-30T12:45:49.415Z,29.45
2023-11-30T12:51:53.128Z,32.83
2023-11-30T12:57:57.216Z,33.22
2023-11-30T13:04:03.008Z,35.38
2023-11-30T13:10:06.868Z,31.90
2023-11-30T13:16:10.975Z,35.05
2023-11-30T13:22:15.920Z,32.67
2023-11-30T13:28:19.772Z,33.00
2023-11-30T13:34:23.243Z,32.28
2023-11-30T13:40:28.247Z,30.60
2023-11-30T13:46:31.788Z,28.63
2023-11-30T13:52:35.495Z,25.60
2023-11-30T13:58:40.525Z,24.15
2023-11-30T14:04:44.132Z,27.52
2023-11-30T14:10:47.839Z,22.52
2023-11-30T14:16:52.733Z,26.77
2023-11-30T14:22:56.310Z,27.15
2023-11-30T14:28:59.789Z,25.95
2023-11-30T14:35:05.396Z,31.55
2023-11-30T14:41:09.137Z,26.65
2023-11-30T14:47:12.926Z,29.30
2023-11-30T14:53:17.813Z,30.98
2023-11-30T14:59:21.513Z,33.40
2023-11-30T15:05:25.080Z,34.30
2023-11-30T15:11:30.012Z,37.30
2023-11-30T15:17:33.685Z,36.08
2023-11-30T15:23:37.484Z,39.15
2023-11-30T15:29:42.336Z,37.33
2023-11-30T15:35:45.787Z,36.17
2023-11-30T15:41:51.303Z,37.88
2023-11-30T15:47:56.375Z,37.55
2023-11-30T15:53:59.980Z,35.40
2023-11-30T16:00:06.302Z,29.52
2023-11-30T16:06:13.328Z,25.50
2023-11-30T16:12:16.835Z,30.52
2023-11-30T16:18:20.377Z,28.63
2023-11-30T16:24:25.369Z,28.45
2023-11-30T16:30:29.125Z,26.52
2023-11-30T16:36:32.771Z,25.10
2023-11-30T16:42:38.185Z,23.60
2023-11-30T16:48:44.581Z,22.20
2023-11-30T16:54:48.101Z,25.08
2023-11-30T17:00:53.088Z,23.05
2023-11-30T17:06:56.684Z,26.52
2023-11-30T17:13:00.232Z,29.33
2023-11-30T17:19:05.169Z,26.70
2023-11-30T17:25:14.998Z,27.38
2023-11-30T17:31:24.499Z,26.15
2023-11-30T17:37:35.604Z,27.15
2023-11-30T17:43:45.114Z,29.90
2023-11-30T17:49:53.168Z,31.52
2023-11-30T17:56:02.509Z,28.60
2023-11-30T18:02:09.251Z,30.27
2023-11-30T18:08:15.793Z,30.10
2023-11-30T18:14:23.613Z,30.70
2023-11-30T18:20:27.135Z,32.92
2023-11-30T18:26:32.157Z,30.30
2023-11-30T18:32:42.227Z,33.75
2023-11-30T18:38:50.785Z,34.55
2023-11-30T18:44:56.114Z,30.20
2023-11-30T18:51:00.975Z,36.50
2023-11-30T18:57:08.505Z,38.53
2023-11-30T19:03:15.503Z,35.78
2023-11-30T19:09:23.492Z,37.60
2023-11-30T19:15:37.009Z,38.63
2023-11-30T19:21:47.187Z,38.53
2023-11-30T19:27:57.770Z,40.83
2023-11-30T19:34:06.076Z,40.05
2023-11-30T19:40:12.029Z,39.65
2023-11-30T19:46:18.444Z,41.38
2023-11-30T19:52:21.935Z,40.20
2023-11-30T19:58:27.106Z,42.75
2023-11-30T20:04:33.522Z,40.70
2023-11-30T20:10:38.552Z,40.67
2023-11-30T20:16:48.909Z,43.90
2023-11-30T20:22:58.360Z,47.35
2023-11-30T20:29:06.359Z,42.05
2023-11-30T20:35:14.682Z,38.28
2023-11-30T20:41:22.791Z,40.05
2023-11-30T20:47:29.341Z,39.20
2023-11-30T20:53:37.392Z,41.92
2023-11-30T20:59:45.647Z,40.83
2023-11-30T21:05:50.168Z,42.92
2023-11-30T21:11:55.825Z,45.83
2023-11-30T21:18:00.923Z,36.33
2023-11-30T21:24:04.447Z,34.22
2023-11-30T21:30:08.522Z,34.50
2023-11-30T21:36:15.385Z,35.90
2023-11-30T21:42:18.938Z,34.42
2023-11-30T21:48:22.793Z,33.78
2023-11-30T21:54:29.196Z,35.97
2023-11-30T22:00:34.426Z,33.65
2023-11-30T22:06:39.546Z,28.83
2023-11-30T22:12:46.061Z,31.02
2023-11-30T22:18:55.862Z,34.95
2023-11-30T22:25:05.418Z,35.10
2023-11-30T22:31:14.991Z,31.90
2023-11-30T22:37:24.085Z,29.98
2023-11-30T22:43:32.312Z,36.67
2023-11-30T22:49:41.727Z,32.67
2023-11-30T22:55:49.513Z,31.10
2023-11-30T23:01:56.315Z,29.33
2023-11-30T23:08:02.946Z,30.50
2023-11-30T23:14:07.917Z,29.23
2023-11-30T23:20:15.647Z,30.85
2023-11-30T23:26:20.504Z,31.33
2023-11-30T23:32:24.184Z,26.80
2023-11-30T23:38:29.344Z,23.58
2023-11-30T23:44:37.506Z,21.98
2023-11-30T23:50:44.003Z,22.98
2023-11-30T23:56:51.929Z,27.35
